sensor_id;sensor_type;location;lat;lon;timestamp;P1;durP1;ratioP1;P2;durP2;ratioP2
64716;SDS011;51146;50.274;19.000;2022-07-03T00:01:35;19.92;;;11.43;;
64716;SDS011;51146;50.274;19.000;2022-07-03T00:04:02;14.10;;;11.70;;
64716;SDS011;51146;50.274;19.000;2022-07-03T00:06:30;15.00;;;12.93;;
64716;SDS011;51146;50.274;19.000;2022-07-03T00:08:59;13.73;;;11.45;;
64716;SDS011;51146;50.274;19.000;2022-07-03T00:11:27;15.73;;;13.05;;
64716;SDS011;51146;50.274;19.000;2022-07-03T00:13:54;15.63;;;13.68;;
64716;SDS011;51146;50.274;19.000;2022-07-03T00:16:21;18.30;;;14.70;;
64716;SDS011;51146;50.274;19.000;2022-07-03T00:18:48;17.35;;;13.18;;
64716;SDS011;51146;50.274;19.000;2022-07-03T00:21:25;14.10;;;12.60;;
64716;SDS011;51146;50.274;19.000;2022-07-03T00:26:26;17.90;;;15.00;;
64716;SDS011;51146;50.274;19.000;2022-07-03T00:28:56;16.70;;;14.52;;
64716;SDS011;51146;50.274;19.000;2022-07-03T00:31:28;17.90;;;14.85;;
64716;SDS011;51146;50.274;19.000;2022-07-03T00:33:57;19.98;;;15.40;;
64716;SDS011;51146;50.274;19.000;2022-07-03T00:36:26;21.73;;;14.98;;
64716;SDS011;51146;50.274;19.000;2022-07-03T00:39:01;16.55;;;14.60;;
64716;SDS011;51146;50.274;19.000;2022-07-03T00:41:29;19.60;;;14.55;;
64716;SDS011;51146;50.274;19.000;2022-07-03T00:43:57;20.20;;;14.17;;
64716;SDS011;51146;50.274;19.000;2022-07-03T00:46:26;19.77;;;16.08;;
64716;SDS011;51146;50.274;19.000;2022-07-03T00:48:54;20.75;;;16.02;;
64716;SDS011;51146;50.274;19.000;2022-07-03T00:51:23;21.40;;;14.65;;
64716;SDS011;51146;50.274;19.000;2022-07-03T00:53:56;17.80;;;15.18;;
64716;SDS011;51146;50.274;19.000;2022-07-03T00:56:28;19.52;;;15.75;;
64716;SDS011;51146;50.274;19.000;2022-07-03T00:59:00;20.20;;;15.48;;
64716;SDS011;51146;50.274;19.000;2022-07-03T01:01:35;18.33;;;15.00;;
64716;SDS011;51146;50.274;19.000;2022-07-03T01:04:22;16.88;;;12.98;;
64716;SDS011;51146;50.274;19.000;2022-07-03T01:07:21;19.10;;;14.20;;
64716;SDS011;51146;50.274;19.000;2022-07-03T01:10:04;23.38;;;16.90;;
64716;SDS011;51146;50.274;19.000;2022-07-03T01:15:50;19.17;;;14.10;;
64716;SDS011;51146;50.274;19.000;2022-07-03T01:18:38;17.25;;;12.45;;
64716;SDS011;51146;50.274;19.000;2022-07-03T01:21:36;14.65;;;12.45;;
64716;SDS011;51146;50.274;19.000;2022-07-03T01:26:57;22.23;;;15.43;;
64716;SDS011;51146;50.274;19.000;2022-07-03T01:29:55;20.13;;;15.95;;
64716;SDS011;51146;50.274;19.000;2022-07-03T01:32:31;20.13;;;15.80;;
64716;SDS011;51146;50.274;19.000;2022-07-03T01:35:00;17.20;;;14.43;;
64716;SDS011;51146;50.274;19.000;2022-07-03T01:37:32;20.38;;;15.88;;
64716;SDS011;51146;50.274;19.000;2022-07-03T01:40:04;19.52;;;15.35;;
64716;SDS011;51146;50.274;19.000;2022-07-03T01:42:32;17.73;;;15.27;;
64716;SDS011;51146;50.274;19.000;2022-07-03T01:45:00;18.27;;;14.18;;
64716;SDS011;51146;50.274;19.000;2022-07-03T01:47:30;16.45;;;14.27;;
64716;SDS011;51146;50.274;19.000;2022-07-03T01:49:58;17.20;;;14.38;;
64716;SDS011;51146;50.274;19.000;2022-07-03T01:52:27;15.95;;;13.60;;
64716;SDS011;51146;50.274;19.000;2022-07-03T01:55:14;18.27;;;13.60;;
64716;SDS011;51146;50.274;19.000;2022-07-03T02:00:13;15.63;;;13.93;;
64716;SDS011;51146;50.274;19.000;2022-07-03T02:02:45;19.27;;;15.05;;
64716;SDS011;51146;50.274;19.000;2022-07-03T02:11:22;16.70;;;13.02;;
64716;SDS011;51146;50.274;19.000;2022-07-03T02:19:18;17.93;;;15.13;;
64716;SDS011;51146;50.274;19.000;2022-07-03T02:21:54;17.95;;;14.30;;
64716;SDS011;51146;50.274;19.000;2022-07-03T02:24:23;23.97;;;17.57;;
64716;SDS011;51146;50.274;19.000;2022-07-03T02:27:05;25.67;;;21.20;;
64716;SDS011;51146;50.274;19.000;2022-07-03T02:29:36;27.08;;;24.17;;
64716;SDS011;51146;50.274;19.000;2022-07-03T02:32:12;22.75;;;19.55;;
64716;SDS011;51146;50.274;19.000;2022-07-03T02:34:42;21.33;;;18.70;;
64716;SDS011;51146;50.274;19.000;2022-07-03T02:37:19;21.90;;;18.25;;
64716;SDS011;51146;50.274;19.000;2022-07-03T02:39:53;18.65;;;14.00;;
64716;SDS011;51146;50.274;19.000;2022-07-03T02:42:32;18.50;;;15.13;;
64716;SDS011;51146;50.274;19.000;2022-07-03T02:45:06;20.83;;;15.85;;
64716;SDS011;51146;50.274;19.000;2022-07-03T02:47:43;19.40;;;14.60;;
64716;SDS011;51146;50.274;19.000;2022-07-03T02:50:18;17.15;;;15.15;;
64716;SDS011;51146;50.274;19.000;2022-07-03T03:01:16;15.35;;;13.18;;
64716;SDS011;51146;50.274;19.000;2022-07-03T03:04:00;21.85;;;16.42;;
64716;SDS011;51146;50.274;19.000;2022-07-03T03:06:54;19.77;;;15.48;;
64716;SDS011;51146;50.274;19.000;2022-07-03T03:09:32;19.13;;;15.02;;
64716;SDS011;51146;50.274;19.000;2022-07-03T03:12:07;19.55;;;15.23;;
64716;SDS011;51146;50.274;19.000;2022-07-03T03:14:39;19.95;;;16.05;;
64716;SDS011;51146;50.274;19.000;2022-07-03T03:17:23;20.15;;;15.48;;
64716;SDS011;51146;50.274;19.000;2022-07-03T03:19:52;24.08;;;18.33;;
64716;SDS011;51146;50.274;19.000;2022-07-03T03:22:33;22.52;;;18.50;;
64716;SDS011;51146;50.274;19.000;2022-07-03T03:25:19;19.92;;;14.93;;
64716;SDS011;51146;50.274;19.000;2022-07-03T03:27:46;17.48;;;14.65;;
64716;SDS011;51146;50.274;19.000;2022-07-03T03:30:13;20.63;;;17.17;;
64716;SDS011;51146;50.274;19.000;2022-07-03T03:32:39;20.48;;;16.58;;
64716;SDS011;51146;50.274;19.000;2022-07-03T03:35:08;22.77;;;17.02;;
64716;SDS011;51146;50.274;19.000;2022-07-03T03:37:35;19.20;;;14.52;;
64716;SDS011;51146;50.274;19.000;2022-07-03T03:40:03;20.48;;;16.45;;
64716;SDS011;51146;50.274;19.000;2022-07-03T03:42:31;20.50;;;15.45;;
64716;SDS011;51146;50.274;19.000;2022-07-03T03:44:57;17.98;;;15.50;;
64716;SDS011;51146;50.274;19.000;2022-07-03T03:47:24;17.33;;;14.35;;
64716;SDS011;51146;50.274;19.000;2022-07-03T03:49:51;18.08;;;13.82;;
64716;SDS011;51146;50.274;19.000;2022-07-03T03:52:18;19.10;;;14.70;;
64716;SDS011;51146;50.274;19.000;2022-07-03T03:54:45;20.65;;;16.52;;
64716;SDS011;51146;50.274;19.000;2022-07-03T03:57:16;18.50;;;15.10;;
64716;SDS011;51146;50.274;19.000;2022-07-03T03:59:47;17.65;;;15.75;;
64716;SDS011;51146;50.274;19.000;2022-07-03T04:02:14;20.92;;;15.15;;
64716;SDS011;51146;50.274;19.000;2022-07-03T04:04:42;17.00;;;14.07;;
64716;SDS011;51146;50.274;19.000;2022-07-03T04:07:10;16.13;;;13.93;;
64716;SDS011;51146;50.274;19.000;2022-07-03T04:09:37;17.60;;;14.80;;
64716;SDS011;51146;50.274;19.000;2022-07-03T04:12:04;18.48;;;14.93;;
64716;SDS011;51146;50.274;19.000;2022-07-03T04:14:31;17.85;;;14.57;;
64716;SDS011;51146;50.274;19.000;2022-07-03T04:17:00;20.23;;;15.50;;
64716;SDS011;51146;50.274;19.000;2022-07-03T04:19:26;17.98;;;14.88;;
64716;SDS011;51146;50.274;19.000;2022-07-03T04:21:53;19.17;;;14.68;;
64716;SDS011;51146;50.274;19.000;2022-07-03T04:24:20;21.05;;;15.32;;
64716;SDS011;51146;50.274;19.000;2022-07-03T04:26:47;17.38;;;14.27;;
64716;SDS011;51146;50.274;19.000;2022-07-03T04:29:14;16.63;;;14.00;;
64716;SDS011;51146;50.274;19.000;2022-07-03T04:31:42;17.88;;;14.27;;
64716;SDS011;51146;50.274;19.000;2022-07-03T04:34:09;21.75;;;15.27;;
64716;SDS011;51146;50.274;19.000;2022-07-03T04:36:36;19.48;;;14.48;;
64716;SDS011;51146;50.274;19.000;2022-07-03T04:39:02;17.55;;;14.48;;
64716;SDS011;51146;50.274;19.000;2022-07-03T04:41:29;17.45;;;14.30;;
64716;SDS011;51146;50.274;19.000;2022-07-03T04:43:56;17.17;;;14.45;;
64716;SDS011;51146;50.274;19.000;2022-07-03T04:46:23;20.80;;;15.60;;
64716;SDS011;51146;50.274;19.000;2022-07-03T04:48:49;15.50;;;13.80;;
64716;SDS011;51146;50.274;19.000;2022-07-03T04:51:17;19.55;;;15.40;;
64716;SDS011;51146;50.274;19.000;2022-07-03T04:53:44;20.23;;;15.43;;
64716;SDS011;51146;50.274;19.000;2022-07-03T04:56:11;19.05;;;15.48;;
64716;SDS011;51146;50.274;19.000;2022-07-03T04:58:37;19.35;;;15.18;;
64716;SDS011;51146;50.274;19.000;2022-07-03T05:01:06;17.57;;;15.67;;
64716;SDS011;51146;50.274;19.000;2022-07-03T05:03:33;18.45;;;14.93;;
64716;SDS011;51146;50.274;19.000;2022-07-03T05:06:00;18.30;;;15.38;;
64716;SDS011;51146;50.274;19.000;2022-07-03T05:08:27;16.83;;;14.63;;
64716;SDS011;51146;50.274;19.000;2022-07-03T05:10:54;18.85;;;16.20;;
64716;SDS011;51146;50.274;19.000;2022-07-03T05:13:21;15.00;;;13.18;;
64716;SDS011;51146;50.274;19.000;2022-07-03T05:15:48;16.75;;;14.70;;
64716;SDS011;51146;50.274;19.000;2022-07-03T05:18:15;16.67;;;14.88;;
64716;SDS011;51146;50.274;19.000;2022-07-03T05:20:47;17.77;;;14.15;;
64716;SDS011;51146;50.274;19.000;2022-07-03T05:23:14;14.15;;;12.73;;
64716;SDS011;51146;50.274;19.000;2022-07-03T05:25:41;16.92;;;13.27;;
64716;SDS011;51146;50.274;19.000;2022-07-03T05:28:08;16.63;;;14.93;;
64716;SDS011;51146;50.274;19.000;2022-07-03T05:30:35;14.82;;;12.68;;
64716;SDS011;51146;50.274;19.000;2022-07-03T05:33:02;13.25;;;11.70;;
64716;SDS011;51146;50.274;19.000;2022-07-03T05:35:29;13.95;;;12.00;;
64716;SDS011;51146;50.274;19.000;2022-07-03T05:37:56;15.40;;;13.15;;
64716;SDS011;51146;50.274;19.000;2022-07-03T05:40:22;14.43;;;12.40;;
64716;SDS011;51146;50.274;19.000;2022-07-03T05:42:49;14.75;;;12.43;;
64716;SDS011;51146;50.274;19.000;2022-07-03T05:45:16;13.43;;;12.02;;
64716;SDS011;51146;50.274;19.000;2022-07-03T05:47:42;15.20;;;12.43;;
64716;SDS011;51146;50.274;19.000;2022-07-03T05:50:09;17.67;;;13.68;;
64716;SDS011;51146;50.274;19.000;2022-07-03T05:52:37;16.23;;;14.13;;
64716;SDS011;51146;50.274;19.000;2022-07-03T05:55:04;19.10;;;14.68;;
64716;SDS011;51146;50.274;19.000;2022-07-03T05:57:31;20.52;;;15.63;;
64716;SDS011;51146;50.274;19.000;2022-07-03T05:59:59;16.17;;;14.48;;
64716;SDS011;51146;50.274;19.000;2022-07-03T06:02:26;17.83;;;14.73;;
64716;SDS011;51146;50.274;19.000;2022-07-03T06:04:53;17.83;;;15.32;;
64716;SDS011;51146;50.274;19.000;2022-07-03T06:07:20;16.13;;;14.20;;
64716;SDS011;51146;50.274;19.000;2022-07-03T06:09:48;15.57;;;13.88;;
64716;SDS011;51146;50.274;19.000;2022-07-03T06:12:15;14.98;;;13.43;;
64716;SDS011;51146;50.274;19.000;2022-07-03T06:14:41;18.55;;;16.58;;
64716;SDS011;51146;50.274;19.000;2022-07-03T06:17:09;16.90;;;15.15;;
64716;SDS011;51146;50.274;19.000;2022-07-03T06:19:36;17.38;;;13.68;;
64716;SDS011;51146;50.274;19.000;2022-07-03T06:22:05;16.00;;;14.18;;
64716;SDS011;51146;50.274;19.000;2022-07-03T06:24:33;16.45;;;14.10;;
64716;SDS011;51146;50.274;19.000;2022-07-03T06:26:59;14.70;;;13.20;;
64716;SDS011;51146;50.274;19.000;2022-07-03T06:29:26;15.70;;;13.85;;
64716;SDS011;51146;50.274;19.000;2022-07-03T06:31:53;13.40;;;12.02;;
64716;SDS011;51146;50.274;19.000;2022-07-03T06:34:20;13.82;;;12.35;;
64716;SDS011;51146;50.274;19.000;2022-07-03T06:36:47;15.65;;;12.32;;
64716;SDS011;51146;50.274;19.000;2022-07-03T06:39:13;12.88;;;11.52;;
64716;SDS011;51146;50.274;19.000;2022-07-03T06:41:40;12.60;;;11.40;;
64716;SDS011;51146;50.274;19.000;2022-07-03T06:44:07;12.95;;;11.05;;
64716;SDS011;51146;50.274;19.000;2022-07-03T06:46:33;12.77;;;11.43;;
64716;SDS011;51146;50.274;19.000;2022-07-03T06:49:01;13.80;;;11.50;;
64716;SDS011;51146;50.274;19.000;2022-07-03T06:51:27;16.10;;;10.60;;
64716;SDS011;51146;50.274;19.000;2022-07-03T06:53:54;14.90;;;10.55;;
64716;SDS011;51146;50.274;19.000;2022-07-03T06:56:21;12.82;;;10.65;;
64716;SDS011;51146;50.274;19.000;2022-07-03T06:58:55;13.52;;;9.82;;
64716;SDS011;51146;50.274;19.000;2022-07-03T07:01:22;10.63;;;9.55;;
64716;SDS011;51146;50.274;19.000;2022-07-03T07:03:49;13.93;;;10.40;;
64716;SDS011;51146;50.274;19.000;2022-07-03T07:06:16;11.38;;;9.35;;
64716;SDS011;51146;50.274;19.000;2022-07-03T07:08:44;10.27;;;9.18;;
64716;SDS011;51146;50.274;19.000;2022-07-03T07:11:12;11.45;;;10.20;;
64716;SDS011;51146;50.274;19.000;2022-07-03T07:13:39;10.27;;;9.25;;
64716;SDS011;51146;50.274;19.000;2022-07-03T07:16:06;9.02;;;8.02;;
64716;SDS011;51146;50.274;19.000;2022-07-03T07:18:33;11.10;;;8.52;;
64716;SDS011;51146;50.274;19.000;2022-07-03T07:21:00;9.98;;;8.98;;
64716;SDS011;51146;50.274;19.000;2022-07-03T07:23:29;14.15;;;8.88;;
64716;SDS011;51146;50.274;19.000;2022-07-03T07:25:56;10.18;;;9.27;;
64716;SDS011;51146;50.274;19.000;2022-07-03T07:28:23;9.30;;;8.40;;
64716;SDS011;51146;50.274;19.000;2022-07-03T07:30:50;11.63;;;8.98;;
64716;SDS011;51146;50.274;19.000;2022-07-03T07:33:20;10.38;;;9.38;;
64716;SDS011;51146;50.274;19.000;2022-07-03T07:35:47;9.13;;;8.20;;
64716;SDS011;51146;50.274;19.000;2022-07-03T07:38:15;9.27;;;8.38;;
64716;SDS011;51146;50.274;19.000;2022-07-03T07:40:42;9.73;;;8.68;;
64716;SDS011;51146;50.274;19.000;2022-07-03T07:43:09;9.43;;;8.52;;
64716;SDS011;51146;50.274;19.000;2022-07-03T07:45:36;7.85;;;7.07;;
64716;SDS011;51146;50.274;19.000;2022-07-03T07:48:04;10.20;;;8.02;;
64716;SDS011;51146;50.274;19.000;2022-07-03T07:50:31;11.00;;;9.15;;
64716;SDS011;51146;50.274;19.000;2022-07-03T07:52:58;8.57;;;7.78;;
64716;SDS011;51146;50.274;19.000;2022-07-03T07:55:25;8.98;;;7.68;;
64716;SDS011;51146;50.274;19.000;2022-07-03T07:57:52;7.72;;;6.50;;
64716;SDS011;51146;50.274;19.000;2022-07-03T08:00:19;7.65;;;6.95;;
64716;SDS011;51146;50.274;19.000;2022-07-03T08:02:49;7.18;;;6.55;;
64716;SDS011;51146;50.274;19.000;2022-07-03T08:05:35;7.57;;;6.35;;
64716;SDS011;51146;50.274;19.000;2022-07-03T08:08:12;8.70;;;6.40;;
64716;SDS011;51146;50.274;19.000;2022-07-03T08:10:47;6.90;;;6.18;;
64716;SDS011;51146;50.274;19.000;2022-07-03T08:13:19;7.78;;;5.90;;
64716;SDS011;51146;50.274;19.000;2022-07-03T08:15:47;8.32;;;5.93;;
64716;SDS011;51146;50.274;19.000;2022-07-03T08:18:14;6.72;;;6.13;;
64716;SDS011;51146;50.274;19.000;2022-07-03T08:20:41;7.70;;;6.90;;
64716;SDS011;51146;50.274;19.000;2022-07-03T08:23:08;8.35;;;6.97;;
64716;SDS011;51146;50.274;19.000;2022-07-03T08:25:36;7.85;;;7.10;;
64716;SDS011;51146;50.274;19.000;2022-07-03T08:28:02;7.65;;;6.78;;
64716;SDS011;51146;50.274;19.000;2022-07-03T08:30:29;7.15;;;6.45;;
64716;SDS011;51146;50.274;19.000;2022-07-03T08:32:57;7.32;;;6.53;;
64716;SDS011;51146;50.274;19.000;2022-07-03T08:35:24;7.07;;;6.40;;
64716;SDS011;51146;50.274;19.000;2022-07-03T08:37:51;7.60;;;6.90;;
64716;SDS011;51146;50.274;19.000;2022-07-03T08:40:19;8.43;;;7.50;;
64716;SDS011;51146;50.274;19.000;2022-07-03T08:42:50;8.17;;;7.40;;
64716;SDS011;51146;50.274;19.000;2022-07-03T08:45:24;7.90;;;7.20;;
64716;SDS011;51146;50.274;19.000;2022-07-03T08:47:54;6.60;;;6.00;;
64716;SDS011;51146;50.274;19.000;2022-07-03T08:50:23;6.63;;;6.03;;
64716;SDS011;51146;50.274;19.000;2022-07-03T08:52:50;6.53;;;5.90;;
64716;SDS011;51146;50.274;19.000;2022-07-03T08:55:18;7.55;;;6.78;;
64716;SDS011;51146;50.274;19.000;2022-07-03T08:57:47;8.18;;;6.68;;
64716;SDS011;51146;50.274;19.000;2022-07-03T09:00:15;6.93;;;6.22;;
64716;SDS011;51146;50.274;19.000;2022-07-03T09:02:44;8.65;;;6.20;;
64716;SDS011;51146;50.274;19.000;2022-07-03T09:05:15;7.68;;;6.00;;
64716;SDS011;51146;50.274;19.000;2022-07-03T09:07:44;6.57;;;5.97;;
64716;SDS011;51146;50.274;19.000;2022-07-03T09:10:15;7.50;;;6.78;;
64716;SDS011;51146;50.274;19.000;2022-07-03T09:12:45;8.07;;;6.75;;
64716;SDS011;51146;50.274;19.000;2022-07-03T09:15:15;7.57;;;6.78;;
64716;SDS011;51146;50.274;19.000;2022-07-03T09:18:01;8.23;;;7.43;;
64716;SDS011;51146;50.274;19.000;2022-07-03T09:20:31;6.93;;;6.22;;
64716;SDS011;51146;50.274;19.000;2022-07-03T09:25:49;7.65;;;6.18;;
64716;SDS011;51146;50.274;19.000;2022-07-03T09:31:06;7.25;;;6.07;;
64716;SDS011;51146;50.274;19.000;2022-07-03T09:33:33;8.52;;;6.55;;
64716;SDS011;51146;50.274;19.000;2022-07-03T09:36:00;7.00;;;6.40;;
64716;SDS011;51146;50.274;19.000;2022-07-03T09:38:30;8.18;;;6.97;;
64716;SDS011;51146;50.274;19.000;2022-07-03T09:40:57;6.72;;;6.13;;
64716;SDS011;51146;50.274;19.000;2022-07-03T09:48:38;8.65;;;6.25;;
64716;SDS011;51146;50.274;19.000;2022-07-03T09:51:17;6.82;;;6.20;;
64716;SDS011;51146;50.274;19.000;2022-07-03T09:53:54;7.75;;;6.82;;
64716;SDS011;51146;50.274;19.000;2022-07-03T09:56:27;7.38;;;6.68;;
64716;SDS011;51146;50.274;19.000;2022-07-03T09:59:15;11.02;;;9.60;;
64716;SDS011;51146;50.274;19.000;2022-07-03T10:01:43;8.77;;;6.88;;
64716;SDS011;51146;50.274;19.000;2022-07-03T10:06:50;7.13;;;6.43;;
64716;SDS011;51146;50.274;19.000;2022-07-03T10:09:26;7.10;;;6.43;;
64716;SDS011;51146;50.274;19.000;2022-07-03T10:11:55;7.55;;;6.78;;
64716;SDS011;51146;50.274;19.000;2022-07-03T10:14:24;6.80;;;6.18;;
64716;SDS011;51146;50.274;19.000;2022-07-03T10:16:53;7.28;;;6.63;;
64716;SDS011;51146;50.274;19.000;2022-07-03T10:19:28;6.82;;;6.22;;
64716;SDS011;51146;50.274;19.000;2022-07-03T10:22:02;7.00;;;6.30;;
64716;SDS011;51146;50.274;19.000;2022-07-03T10:24:33;7.82;;;7.03;;
64716;SDS011;51146;50.274;19.000;2022-07-03T10:27:00;7.55;;;6.85;;
64716;SDS011;51146;50.274;19.000;2022-07-03T10:29:27;7.15;;;6.45;;
64716;SDS011;51146;50.274;19.000;2022-07-03T10:31:55;7.05;;;6.35;;
64716;SDS011;51146;50.274;19.000;2022-07-03T10:34:26;9.43;;;6.45;;
64716;SDS011;51146;50.274;19.000;2022-07-03T10:36:58;6.53;;;5.78;;
64716;SDS011;51146;50.274;19.000;2022-07-03T10:41:54;6.50;;;6.00;;
64716;SDS011;51146;50.274;19.000;2022-07-03T10:50:10;7.47;;;6.68;;
64716;SDS011;51146;50.274;19.000;2022-07-03T10:52:41;6.50;;;5.90;;
64716;SDS011;51146;50.274;19.000;2022-07-03T10:55:11;7.07;;;6.30;;
64716;SDS011;51146;50.274;19.000;2022-07-03T10:57:40;7.18;;;6.38;;
64716;SDS011;51146;50.274;19.000;2022-07-03T11:00:12;6.90;;;6.32;;
64716;SDS011;51146;50.274;19.000;2022-07-03T11:02:49;6.40;;;5.90;;
64716;SDS011;51146;50.274;19.000;2022-07-03T11:05:19;6.88;;;6.32;;
64716;SDS011;51146;50.274;19.000;2022-07-03T11:15:27;6.70;;;6.10;;
64716;SDS011;51146;50.274;19.000;2022-07-03T11:23:23;6.55;;;6.03;;
64716;SDS011;51146;50.274;19.000;2022-07-03T11:26:19;7.18;;;6.30;;
64716;SDS011;51146;50.274;19.000;2022-07-03T11:28:51;6.30;;;5.80;;
64716;SDS011;51146;50.274;19.000;2022-07-03T11:31:20;8.18;;;6.38;;
64716;SDS011;51146;50.274;19.000;2022-07-03T11:36:23;7.25;;;6.65;;
64716;SDS011;51146;50.274;19.000;2022-07-03T11:41:29;6.47;;;5.88;;
64716;SDS011;51146;50.274;19.000;2022-07-03T11:44:09;8.40;;;7.00;;
64716;SDS011;51146;50.274;19.000;2022-07-03T11:46:40;6.40;;;5.88;;
64716;SDS011;51146;50.274;19.000;2022-07-03T11:51:39;7.68;;;5.90;;
64716;SDS011;51146;50.274;19.000;2022-07-03T11:54:07;7.13;;;6.45;;
64716;SDS011;51146;50.274;19.000;2022-07-03T11:56:34;7.13;;;6.47;;
64716;SDS011;51146;50.274;19.000;2022-07-03T11:59:03;8.60;;;6.57;;
64716;SDS011;51146;50.274;19.000;2022-07-03T12:01:32;8.65;;;7.85;;
64716;SDS011;51146;50.274;19.000;2022-07-03T12:06:46;7.18;;;6.57;;
64716;SDS011;51146;50.274;19.000;2022-07-03T12:11:59;7.32;;;6.72;;
64716;SDS011;51146;50.274;19.000;2022-07-03T12:17:05;6.70;;;6.13;;
64716;SDS011;51146;50.274;19.000;2022-07-03T12:19:34;6.97;;;6.35;;
64716;SDS011;51146;50.274;19.000;2022-07-03T12:22:01;7.40;;;6.78;;
64716;SDS011;51146;50.274;19.000;2022-07-03T12:24:28;6.85;;;6.30;;
64716;SDS011;51146;50.274;19.000;2022-07-03T12:26:54;7.18;;;6.38;;
64716;SDS011;51146;50.274;19.000;2022-07-03T12:29:21;7.57;;;6.88;;
64716;SDS011;51146;50.274;19.000;2022-07-03T12:31:49;7.05;;;6.53;;
64716;SDS011;51146;50.274;19.000;2022-07-03T12:34:17;6.95;;;6.35;;
64716;SDS011;51146;50.274;19.000;2022-07-03T12:36:54;8.23;;;7.50;;
64716;SDS011;51146;50.274;19.000;2022-07-03T12:39:23;8.00;;;7.40;;
64716;SDS011;51146;50.274;19.000;2022-07-03T12:41:50;7.70;;;7.00;;
64716;SDS011;51146;50.274;19.000;2022-07-03T12:44:19;7.18;;;6.57;;
64716;SDS011;51146;50.274;19.000;2022-07-03T12:46:49;7.30;;;6.70;;
64716;SDS011;51146;50.274;19.000;2022-07-03T12:49:16;7.63;;;6.97;;
64716;SDS011;51146;50.274;19.000;2022-07-03T12:51:46;9.15;;;7.38;;
64716;SDS011;51146;50.274;19.000;2022-07-03T12:54:16;7.40;;;6.80;;
64716;SDS011;51146;50.274;19.000;2022-07-03T12:57:02;7.45;;;6.75;;
64716;SDS011;51146;50.274;19.000;2022-07-03T13:00:02;7.78;;;7.18;;
64716;SDS011;51146;50.274;19.000;2022-07-03T13:02:32;7.50;;;6.80;;
64716;SDS011;51146;50.274;19.000;2022-07-03T13:05:22;8.23;;;7.13;;
64716;SDS011;51146;50.274;19.000;2022-07-03T13:07:51;9.50;;;8.60;;
64716;SDS011;51146;50.274;19.000;2022-07-03T13:10:56;8.13;;;7.20;;
64716;SDS011;51146;50.274;19.000;2022-07-03T13:13:24;8.48;;;7.78;;
64716;SDS011;51146;50.274;19.000;2022-07-03T13:15:52;7.53;;;6.72;;
64716;SDS011;51146;50.274;19.000;2022-07-03T13:18:19;10.30;;;8.32;;
64716;SDS011;51146;50.274;19.000;2022-07-03T13:20:45;10.13;;;7.22;;
64716;SDS011;51146;50.274;19.000;2022-07-03T13:23:12;11.07;;;8.80;;
64716;SDS011;51146;50.274;19.000;2022-07-03T13:25:39;8.70;;;7.88;;
64716;SDS011;51146;50.274;19.000;2022-07-03T13:28:10;9.27;;;8.32;;
64716;SDS011;51146;50.274;19.000;2022-07-03T13:30:39;7.90;;;7.07;;
64716;SDS011;51146;50.274;19.000;2022-07-03T13:33:07;7.80;;;7.10;;
64716;SDS011;51146;50.274;19.000;2022-07-03T13:35:35;7.63;;;6.93;;
64716;SDS011;51146;50.274;19.000;2022-07-03T13:38:02;8.07;;;7.38;;
64716;SDS011;51146;50.274;19.000;2022-07-03T13:40:29;7.75;;;7.05;;
64716;SDS011;51146;50.274;19.000;2022-07-03T13:42:57;8.15;;;7.32;;
64716;SDS011;51146;50.274;19.000;2022-07-03T13:45:23;7.20;;;6.60;;
64716;SDS011;51146;50.274;19.000;2022-07-03T13:47:50;7.43;;;6.68;;
64716;SDS011;51146;50.274;19.000;2022-07-03T13:50:17;7.63;;;6.93;;
64716;SDS011;51146;50.274;19.000;2022-07-03T13:52:44;7.22;;;6.68;;
64716;SDS011;51146;50.274;19.000;2022-07-03T13:55:15;7.57;;;6.80;;
64716;SDS011;51146;50.274;19.000;2022-07-03T13:57:42;7.70;;;6.90;;
64716;SDS011;51146;50.274;19.000;2022-07-03T14:00:09;6.85;;;6.25;;
64716;SDS011;51146;50.274;19.000;2022-07-03T14:02:37;7.72;;;7.03;;
64716;SDS011;51146;50.274;19.000;2022-07-03T14:05:05;7.43;;;6.40;;
64716;SDS011;51146;50.274;19.000;2022-07-03T14:07:33;7.33;;;6.63;;
64716;SDS011;51146;50.274;19.000;2022-07-03T14:10:00;8.23;;;7.25;;
64716;SDS011;51146;50.274;19.000;2022-07-03T14:12:27;6.35;;;5.75;;
64716;SDS011;51146;50.274;19.000;2022-07-03T14:14:53;6.57;;;5.88;;
64716;SDS011;51146;50.274;19.000;2022-07-03T14:17:22;6.05;;;5.47;;
64716;SDS011;51146;50.274;19.000;2022-07-03T14:19:49;6.38;;;5.78;;
64716;SDS011;51146;50.274;19.000;2022-07-03T14:22:15;6.30;;;5.80;;
64716;SDS011;51146;50.274;19.000;2022-07-03T14:24:42;6.32;;;5.78;;
64716;SDS011;51146;50.274;19.000;2022-07-03T14:27:10;6.53;;;5.95;;
64716;SDS011;51146;50.274;19.000;2022-07-03T14:29:55;7.70;;;5.85;;
64716;SDS011;51146;50.274;19.000;2022-07-03T14:32:40;6.68;;;6.15;;
64716;SDS011;51146;50.274;19.000;2022-07-03T14:35:07;6.65;;;5.57;;
64716;SDS011;51146;50.274;19.000;2022-07-03T14:37:34;7.28;;;6.57;;
64716;SDS011;51146;50.274;19.000;2022-07-03T14:40:01;7.43;;;6.35;;
64716;SDS011;51146;50.274;19.000;2022-07-03T14:42:28;6.72;;;6.13;;
64716;SDS011;51146;50.274;19.000;2022-07-03T14:44:55;7.40;;;6.10;;
64716;SDS011;51146;50.274;19.000;2022-07-03T14:47:21;7.20;;;6.35;;
64716;SDS011;51146;50.274;19.000;2022-07-03T14:49:48;6.22;;;5.72;;
64716;SDS011;51146;50.274;19.000;2022-07-03T14:52:15;6.55;;;5.95;;
64716;SDS011;51146;50.274;19.000;2022-07-03T14:54:45;7.13;;;6.43;;
64716;SDS011;51146;50.274;19.000;2022-07-03T15:00:05;6.30;;;5.70;;
64716;SDS011;51146;50.274;19.000;2022-07-03T15:02:45;7.80;;;7.00;;
64716;SDS011;51146;50.274;19.000;2022-07-03T15:05:38;8.27;;;6.97;;
64716;SDS011;51146;50.274;19.000;2022-07-03T15:10:55;7.75;;;7.07;;
64716;SDS011;51146;50.274;19.000;2022-07-03T15:13:27;8.77;;;7.97;;
64716;SDS011;51146;50.274;19.000;2022-07-03T15:15:54;7.28;;;6.68;;
64716;SDS011;51146;50.274;19.000;2022-07-03T15:18:22;7.10;;;6.50;;
64716;SDS011;51146;50.274;19.000;2022-07-03T15:20:52;11.43;;;6.85;;
64716;SDS011;51146;50.274;19.000;2022-07-03T15:23:19;8.88;;;7.25;;
64716;SDS011;51146;50.274;19.000;2022-07-03T15:25:47;7.83;;;7.13;;
64716;SDS011;51146;50.274;19.000;2022-07-03T15:28:15;9.45;;;7.00;;
64716;SDS011;51146;50.274;19.000;2022-07-03T15:30:47;8.23;;;7.43;;
64716;SDS011;51146;50.274;19.000;2022-07-03T15:33:16;9.10;;;7.78;;
64716;SDS011;51146;50.274;19.000;2022-07-03T15:35:45;8.30;;;7.05;;
64716;SDS011;51146;50.274;19.000;2022-07-03T15:38:20;8.35;;;7.55;;
64716;SDS011;51146;50.274;19.000;2022-07-03T15:40:58;8.88;;;7.97;;
64716;SDS011;51146;50.274;19.000;2022-07-03T15:46:39;8.68;;;7.38;;
64716;SDS011;51146;50.274;19.000;2022-07-03T15:49:26;8.30;;;7.50;;
64716;SDS011;51146;50.274;19.000;2022-07-03T15:54:32;8.45;;;7.65;;
64716;SDS011;51146;50.274;19.000;2022-07-03T15:57:28;8.20;;;7.38;;
64716;SDS011;51146;50.274;19.000;2022-07-03T16:00:04;9.75;;;7.85;;
64716;SDS011;51146;50.274;19.000;2022-07-03T16:05:14;8.90;;;8.10;;
64716;SDS011;51146;50.274;19.000;2022-07-03T16:07:51;8.93;;;8.02;;
64716;SDS011;51146;50.274;19.000;2022-07-03T16:10:20;8.50;;;7.70;;
64716;SDS011;51146;50.274;19.000;2022-07-03T16:12:47;9.80;;;7.55;;
64716;SDS011;51146;50.274;19.000;2022-07-03T16:15:15;8.02;;;7.32;;
64716;SDS011;51146;50.274;19.000;2022-07-03T16:17:44;9.52;;;7.57;;